sensor_id;sensor_type;location;lat;lon;timestamp;pressure;altitude;pressure_sealevel;temperature;humidity
63665;BME280;49820;33.966;73.390;2023-09-07T03:25:39;79006.53;;;26.82;49.18
63665;BME280;49820;33.966;73.390;2023-09-07T03:28:09;79022.81;;;26.84;52.66
63665;BME280;49820;33.966;73.390;2023-09-07T03:30:38;79015.50;;;26.91;48.73
63665;BME280;49820;33.966;73.390;2023-09-07T03:33:08;79028.00;;;26.88;49.24
63665;BME280;49820;33.966;73.390;2023-09-07T03:35:37;79017.06;;;26.69;49.37
63665;BME280;49820;33.966;73.390;2023-09-07T03:38:06;79029.69;;;26.74;52.28
63665;BME280;49820;33.966;73.390;2023-09-07T03:40:35;79010.72;;;26.42;52.18
63665;BME280;49820;33.966;73.390;2023-09-07T03:43:04;79024.34;;;26.72;51.46
63665;BME280;49820;33.966;73.390;2023-09-07T03:45:33;79019.16;;;26.49;53.87
63665;BME280;49820;33.966;73.390;2023-09-07T03:48:03;79041.44;;;26.73;53.66
63665;BME280;49820;33.966;73.390;2023-09-07T03:50:33;79010.38;;;26.57;52.05
63665;BME280;49820;33.966;73.390;2023-09-07T03:53:02;79036.09;;;26.71;53.12
63665;BME280;49820;33.966;73.390;2023-09-07T03:55:40;79023.56;;;26.05;56.53
63665;BME280;49820;33.966;73.390;2023-09-07T03:58:12;79038.31;;;26.68;55.66
63665;BME280;49820;33.966;73.390;2023-09-07T04:00:44;79007.06;;;26.16;54.73
63665;BME280;49820;33.966;73.390;2023-09-07T04:03:13;79048.81;;;26.16;56.84
63665;BME280;49820;33.966;73.390;2023-09-07T04:05:43;79054.75;;;26.30;66.26
63665;BME280;49820;33.966;73.390;2023-09-07T04:08:12;78923.75;;;25.44;72.92
63665;BME280;49820;33.966;73.390;2023-09-07T04:10:41;79037.28;;;26.25;75.22
63665;BME280;49820;33.966;73.390;2023-09-07T04:13:10;79036.13;;;26.21;74.88
63665;BME280;49820;33.966;73.390;2023-09-07T04:15:42;79007.78;;;26.06;71.05
63665;BME280;49820;33.966;73.390;2023-09-07T04:18:15;78948.72;;;25.49;76.67
63665;BME280;49820;33.966;73.390;2023-09-07T04:20:46;79021.59;;;26.04;79.95
63665;BME280;49820;33.966;73.390;2023-09-07T04:23:14;79036.59;;;26.05;77.50
63665;BME280;49820;33.966;73.390;2023-09-07T04:26:08;79041.56;;;26.02;75.55
63665;BME280;49820;33.966;73.390;2023-09-07T04:28:38;79022.13;;;25.76;73.40
63665;BME280;49820;33.966;73.390;2023-09-07T04:31:07;79036.78;;;25.52;75.52
63665;BME280;49820;33.966;73.390;2023-09-07T04:33:36;79022.91;;;25.34;77.71
63665;BME280;49820;33.966;73.390;2023-09-07T04:36:13;79032.78;;;25.40;79.72
63665;BME280;49820;33.966;73.390;2023-09-07T04:38:45;79030.19;;;25.38;81.86
63665;BME280;49820;33.966;73.390;2023-09-07T04:41:15;79020.22;;;25.13;80.82
63665;BME280;49820;33.966;73.390;2023-09-07T04:43:44;78994.09;;;24.84;78.86
63665;BME280;49820;33.966;73.390;2023-09-07T04:46:14;79030.13;;;25.08;80.43
63665;BME280;49820;33.966;73.390;2023-09-07T04:48:44;79042.34;;;25.09;75.88
63665;BME280;49820;33.966;73.390;2023-09-07T04:51:13;79000.50;;;24.70;73.69
63665;BME280;49820;33.966;73.390;2023-09-07T04:53:43;79017.91;;;24.75;79.60
63665;BME280;49820;33.966;73.390;2023-09-07T04:56:13;79032.09;;;24.88;74.77
63665;BME280;49820;33.966;73.390;2023-09-07T04:58:41;79030.16;;;24.76;75.28
63665;BME280;49820;33.966;73.390;2023-09-07T05:01:12;79002.19;;;24.44;74.78
63665;BME280;49820;33.966;73.390;2023-09-07T05:03:42;79047.31;;;24.85;78.90
63665;BME280;49820;33.966;73.390;2023-09-07T05:06:11;79024.44;;;24.80;84.95
63665;BME280;49820;33.966;73.390;2023-09-07T05:08:58;79044.84;;;24.92;74.93
63665;BME280;49820;33.966;73.390;2023-09-07T05:11:26;79046.41;;;24.89;75.74
63665;BME280;49820;33.966;73.390;2023-09-07T05:13:56;79032.22;;;24.76;81.33
63665;BME280;49820;33.966;73.390;2023-09-07T05:16:26;79010.75;;;24.69;72.09
63665;BME280;49820;33.966;73.390;2023-09-07T05:18:55;79050.41;;;24.90;81.30
63665;BME280;49820;33.966;73.390;2023-09-07T05:21:24;79025.31;;;24.77;79.05
63665;BME280;49820;33.966;73.390;2023-09-07T05:23:53;79042.13;;;25.02;84.43
63665;BME280;49820;33.966;73.390;2023-09-07T05:26:23;79043.16;;;24.97;85.75
63665;BME280;49820;33.966;73.390;2023-09-07T05:28:53;79027.91;;;25.00;94.93
63665;BME280;49820;33.966;73.390;2023-09-07T05:31:23;79033.09;;;25.15;90.49
63665;BME280;49820;33.966;73.390;2023-09-07T05:33:53;79034.38;;;25.37;83.01
63665;BME280;49820;33.966;73.390;2023-09-07T05:36:23;79040.69;;;25.55;91.97
63665;BME280;49820;33.966;73.390;2023-09-07T05:38:52;79007.78;;;25.35;82.36
63665;BME280;49820;33.966;73.390;2023-09-07T05:41:21;79015.22;;;25.77;85.11
63665;BME280;49820;33.966;73.390;2023-09-07T05:43:55;79029.06;;;26.25;83.08
63665;BME280;49820;33.966;73.390;2023-09-07T05:46:25;79028.75;;;26.78;84.75
63665;BME280;49820;33.966;73.390;2023-09-07T05:48:54;79005.50;;;27.15;84.84
63665;BME280;49820;33.966;73.390;2023-09-07T05:51:24;79013.03;;;27.62;69.36
63665;BME280;49820;33.966;73.390;2023-09-07T05:53:54;79019.28;;;27.88;69.68
63665;BME280;49820;33.966;73.390;2023-09-07T05:56:24;79027.38;;;28.27;63.55
63665;BME280;49820;33.966;73.390;2023-09-07T05:58:52;79002.44;;;28.82;65.30
63665;BME280;49820;33.966;73.390;2023-09-07T06:01:21;78980.91;;;29.28;70.87
63665;BME280;49820;33.966;73.390;2023-09-07T06:03:51;79015.91;;;30.22;61.24
63665;BME280;49820;33.966;73.390;2023-09-07T06:06:20;79019.72;;;30.51;61.32
63665;BME280;49820;33.966;73.390;2023-09-07T06:08:49;78987.31;;;30.76;58.40
63665;BME280;49820;33.966;73.390;2023-09-07T06:11:19;79000.88;;;31.42;60.76
63665;BME280;49820;33.966;73.390;2023-09-07T06:13:48;79003.66;;;31.81;62.54
63665;BME280;49820;33.966;73.390;2023-09-07T06:16:17;78980.47;;;31.94;55.20
63665;BME280;49820;33.966;73.390;2023-09-07T06:18:46;78947.00;;;31.89;49.69
63665;BME280;49820;33.966;73.390;2023-09-07T06:21:15;79009.66;;;32.69;51.87
63665;BME280;49820;33.966;73.390;2023-09-07T06:23:44;78949.06;;;32.43;52.18
63665;BME280;49820;33.966;73.390;2023-09-07T06:26:13;79004.84;;;32.91;53.01
63665;BME280;49820;33.966;73.390;2023-09-07T06:28:42;78926.19;;;32.66;47.32
63665;BME280;49820;33.966;73.390;2023-09-07T06:31:11;78982.97;;;33.17;35.40
63665;BME280;49820;33.966;73.390;2023-09-07T06:33:43;78982.25;;;33.25;50.35
63665;BME280;49820;33.966;73.390;2023-09-07T06:36:12;78954.34;;;33.06;48.19
63665;BME280;49820;33.966;73.390;2023-09-07T06:38:41;78966.63;;;33.59;43.92
63665;BME280;49820;33.966;73.390;2023-09-07T06:41:10;79001.47;;;33.12;39.30
63665;BME280;49820;33.966;73.390;2023-09-07T06:43:40;78965.13;;;33.38;45.59
63665;BME280;49820;33.966;73.390;2023-09-07T06:46:09;78977.56;;;33.89;43.79
63665;BME280;49820;33.966;73.390;2023-09-07T06:48:38;78980.03;;;33.78;43.38
63665;BME280;49820;33.966;73.390;2023-09-07T06:51:07;78990.72;;;34.04;42.01
63665;BME280;49820;33.966;73.390;2023-09-07T06:53:38;78972.94;;;34.23;44.50
63665;BME280;49820;33.966;73.390;2023-09-07T06:56:23;78994.63;;;34.14;44.76
63665;BME280;49820;33.966;73.390;2023-09-07T06:58:52;78996.34;;;34.39;38.37
63665;BME280;49820;33.966;73.390;2023-09-07T07:01:21;78989.72;;;34.14;34.98
63665;BME280;49820;33.966;73.390;2023-09-07T07:03:50;78956.91;;;33.88;34.58
63665;BME280;49820;33.966;73.390;2023-09-07T07:06:20;78969.81;;;34.27;34.30
63665;BME280;49820;33.966;73.390;2023-09-07T07:08:54;78946.88;;;34.13;37.96
63665;BME280;49820;33.966;73.390;2023-09-07T07:11:23;78983.38;;;33.72;36.03
63665;BME280;49820;33.966;73.390;2023-09-07T07:13:52;78928.59;;;33.94;33.04
63665;BME280;49820;33.966;73.390;2023-09-07T07:16:21;78950.06;;;34.16;43.47
63665;BME280;49820;33.966;73.390;2023-09-07T07:19:07;78976.16;;;34.75;39.23
63665;BME280;49820;33.966;73.390;2023-09-07T07:21:36;78973.91;;;34.98;40.66
63665;BME280;49820;33.966;73.390;2023-09-07T07:24:08;78952.72;;;34.88;33.55
63665;BME280;49820;33.966;73.390;2023-09-07T07:26:37;78967.75;;;35.45;44.60
63665;BME280;49820;33.966;73.390;2023-09-07T07:29:06;78969.19;;;34.96;35.84
63665;BME280;49820;33.966;73.390;2023-09-07T07:31:35;78974.16;;;34.39;30.85
63665;BME280;49820;33.966;73.390;2023-09-07T07:34:04;78967.06;;;32.50;32.90
63665;BME280;49820;33.966;73.390;2023-09-07T07:36:34;78960.97;;;32.41;36.26
63665;BME280;49820;33.966;73.390;2023-09-07T07:39:05;78934.28;;;32.83;38.13
63665;BME280;49820;33.966;73.390;2023-09-07T07:41:36;78935.09;;;33.19;41.53
63665;BME280;49820;33.966;73.390;2023-09-07T07:44:10;78958.38;;;33.44;41.11
63665;BME280;49820;33.966;73.390;2023-09-07T07:46:39;78941.88;;;33.79;40.45
63665;BME280;49820;33.966;73.390;2023-09-07T07:49:08;78937.81;;;32.75;40.62
63665;BME280;49820;33.966;73.390;2023-09-07T07:51:37;78949.75;;;33.54;42.34
63665;BME280;49820;33.966;73.390;2023-09-07T07:54:06;78950.56;;;33.53;45.87
63665;BME280;49820;33.966;73.390;2023-09-07T07:56:35;78905.16;;;33.50;41.73
63665;BME280;49820;33.966;73.390;2023-09-07T07:59:07;78891.63;;;32.95;41.97
63665;BME280;49820;33.966;73.390;2023-09-07T08:01:36;78904.41;;;33.36;42.07
63665;BME280;49820;33.966;73.390;2023-09-07T08:04:06;78943.06;;;33.08;44.29
63665;BME280;49820;33.966;73.390;2023-09-07T08:06:35;78922.78;;;33.03;42.04
63665;BME280;49820;33.966;73.390;2023-09-07T08:09:04;78912.53;;;33.01;42.89
63665;BME280;49820;33.966;73.390;2023-09-07T08:11:33;78921.53;;;33.23;45.35
63665;BME280;49820;33.966;73.390;2023-09-07T08:14:03;78933.59;;;33.20;42.69
63665;BME280;49820;33.966;73.390;2023-09-07T08:16:32;78933.06;;;32.89;42.02
63665;BME280;49820;33.966;73.390;2023-09-07T08:19:01;78923.41;;;32.66;43.29
63665;BME280;49820;33.966;73.390;2023-09-07T08:21:33;78921.81;;;32.76;43.33
63665;BME280;49820;33.966;73.390;2023-09-07T08:24:03;78912.25;;;33.33;43.70
63665;BME280;49820;33.966;73.390;2023-09-07T08:26:35;78922.44;;;32.24;44.24
63665;BME280;49820;33.966;73.390;2023-09-07T08:29:08;78917.88;;;33.03;43.21
63665;BME280;49820;33.966;73.390;2023-09-07T08:31:40;78883.44;;;33.52;42.36
63665;BME280;49820;33.966;73.390;2023-09-07T08:34:09;78916.47;;;33.11;42.75
63665;BME280;49820;33.966;73.390;2023-09-07T08:36:38;78891.25;;;33.43;46.00
63665;BME280;49820;33.966;73.390;2023-09-07T08:39:07;78895.38;;;33.51;41.78
63665;BME280;49820;33.966;73.390;2023-09-07T08:41:39;78908.22;;;33.83;41.28
63665;BME280;49820;33.966;73.390;2023-09-07T08:44:29;78913.03;;;32.88;40.95
63665;BME280;49820;33.966;73.390;2023-09-07T08:46:59;78894.28;;;32.67;43.59
63665;BME280;49820;33.966;73.390;2023-09-07T08:49:32;78850.13;;;32.43;43.59
63665;BME280;49820;33.966;73.390;2023-09-07T08:52:18;78869.53;;;32.13;43.31
63665;BME280;49820;33.966;73.390;2023-09-07T08:54:49;78882.41;;;30.37;47.49
63665;BME280;49820;33.966;73.390;2023-09-07T08:57:21;78907.28;;;29.11;50.33
63665;BME280;49820;33.966;73.390;2023-09-07T08:59:50;78897.69;;;29.86;51.43
63665;BME280;49820;33.966;73.390;2023-09-07T09:02:23;78888.19;;;30.73;47.23
63665;BME280;49820;33.966;73.390;2023-09-07T09:04:53;78885.63;;;31.50;47.95
63665;BME280;49820;33.966;73.390;2023-09-07T09:07:25;78886.22;;;31.89;46.92
63665;BME280;49820;33.966;73.390;2023-09-07T09:10:05;78868.00;;;31.92;45.45
63665;BME280;49820;33.966;73.390;2023-09-07T09:12:35;78860.97;;;31.63;45.84
63665;BME280;49820;33.966;73.390;2023-09-07T09:15:04;78858.13;;;31.87;47.18
63665;BME280;49820;33.966;73.390;2023-09-07T09:17:34;78831.06;;;31.80;47.40
63665;BME280;49820;33.966;73.390;2023-09-07T09:20:03;78816.03;;;32.01;48.72
63665;BME280;49820;33.966;73.390;2023-09-07T09:22:38;78841.94;;;32.50;44.52
63665;BME280;49820;33.966;73.390;2023-09-07T09:25:08;78874.22;;;32.82;44.12
63665;BME280;49820;33.966;73.390;2023-09-07T09:27:37;78791.09;;;31.64;46.19
63665;BME280;49820;33.966;73.390;2023-09-07T09:30:07;78860.91;;;32.54;45.69
63665;BME280;49820;33.966;73.390;2023-09-07T09:32:36;78866.00;;;32.88;43.83
63665;BME280;49820;33.966;73.390;2023-09-07T09:35:05;78860.16;;;32.99;49.32
63665;BME280;49820;33.966;73.390;2023-09-07T09:37:46;78810.72;;;32.73;46.23
63665;BME280;49820;33.966;73.390;2023-09-07T09:40:18;78871.59;;;33.17;47.52
63665;BME280;49820;33.966;73.390;2023-09-07T09:42:50;78854.13;;;32.38;44.40
63665;BME280;49820;33.966;73.390;2023-09-07T09:45:20;78762.47;;;32.20;43.59
63665;BME280;49820;33.966;73.390;2023-09-07T09:47:51;78847.91;;;32.52;43.87
63665;BME280;49820;33.966;73.390;2023-09-07T09:50:24;78858.06;;;32.47;44.74
63665;BME280;49820;33.966;73.390;2023-09-07T09:52:53;78839.81;;;32.50;44.25
63665;BME280;49820;33.966;73.390;2023-09-07T09:55:24;78848.16;;;32.20;44.20
63665;BME280;49820;33.966;73.390;2023-09-07T09:57:52;78787.69;;;31.79;44.13
63665;BME280;49820;33.966;73.390;2023-09-07T10:00:27;78830.25;;;31.67;45.74
63665;BME280;49820;33.966;73.390;2023-09-07T10:03:21;78818.31;;;31.38;45.42
63665;BME280;49820;33.966;73.390;2023-09-07T10:05:53;78810.75;;;32.06;45.68
63665;BME280;49820;33.966;73.390;2023-09-07T10:08:22;78822.66;;;31.89;44.58
63665;BME280;49820;33.966;73.390;2023-09-07T10:10:54;78818.63;;;31.42;44.54
63665;BME280;49820;33.966;73.390;2023-09-07T10:13:32;78837.13;;;31.44;45.46
63665;BME280;49820;33.966;73.390;2023-09-07T10:16:06;78789.16;;;31.17;47.87
63665;BME280;49820;33.966;73.390;2023-09-07T10:18:40;78813.78;;;31.04;47.84
63665;BME280;49820;33.966;73.390;2023-09-07T10:21:09;78828.41;;;31.02;46.66
63665;BME280;49820;33.966;73.390;2023-09-07T10:23:43;78810.78;;;30.28;46.20
63665;BME280;49820;33.966;73.390;2023-09-07T10:26:17;78809.03;;;30.72;47.63
63665;BME280;49820;33.966;73.390;2023-09-07T10:28:59;78801.50;;;30.79;47.64
63665;BME280;49820;33.966;73.390;2023-09-07T10:31:29;78812.03;;;31.00;46.88
63665;BME280;49820;33.966;73.390;2023-09-07T10:34:18;78807.50;;;30.58;46.35
63665;BME280;49820;33.966;73.390;2023-09-07T10:36:48;78818.34;;;30.84;48.35
63665;BME280;49820;33.966;73.390;2023-09-07T10:39:21;78725.16;;;30.30;48.60
63665;BME280;49820;33.966;73.390;2023-09-07T10:41:51;78783.75;;;30.69;47.05
63665;BME280;49820;33.966;73.390;2023-09-07T10:44:25;78809.41;;;30.83;45.44
63665;BME280;49820;33.966;73.390;2023-09-07T10:46:56;78742.59;;;29.96;45.99
63665;BME280;49820;33.966;73.390;2023-09-07T10:49:26;78763.50;;;29.93;46.88
63665;BME280;49820;33.966;73.390;2023-09-07T10:51:55;78799.97;;;30.41;46.16
63665;BME280;49820;33.966;73.390;2023-09-07T10:54:24;78811.78;;;29.92;49.52
63665;BME280;49820;33.966;73.390;2023-09-07T10:56:53;78768.19;;;29.71;49.28
63665;BME280;49820;33.966;73.390;2023-09-07T10:59:28;78783.06;;;29.74;48.96
63665;BME280;49820;33.966;73.390;2023-09-07T11:02:06;78760.31;;;29.58;49.71
63665;BME280;49820;33.966;73.390;2023-09-07T11:04:35;78791.13;;;29.76;50.24
63665;BME280;49820;33.966;73.390;2023-09-07T11:07:04;78729.97;;;29.02;47.07
63665;BME280;49820;33.966;73.390;2023-09-07T11:09:40;78764.78;;;29.29;48.85
63665;BME280;49820;33.966;73.390;2023-09-07T11:12:13;78763.75;;;29.50;48.01
63665;BME280;49820;33.966;73.390;2023-09-07T11:14:47;78766.47;;;29.58;48.32
63665;BME280;49820;33.966;73.390;2023-09-07T11:17:26;78764.56;;;29.48;49.59
63665;BME280;49820;33.966;73.390;2023-09-07T11:19:57;78764.88;;;29.53;49.24
63665;BME280;49820;33.966;73.390;2023-09-07T11:22:26;78728.09;;;28.83;51.03
63665;BME280;49820;33.966;73.390;2023-09-07T11:24:55;78754.00;;;29.18;50.23
63665;BME280;49820;33.966;73.390;2023-09-07T11:27:24;78748.56;;;29.01;50.41
63665;BME280;49820;33.966;73.390;2023-09-07T11:29:55;78765.63;;;29.19;51.69
63665;BME280;49820;33.966;73.390;2023-09-07T11:32:24;78764.16;;;28.79;50.97
63665;BME280;49820;33.966;73.390;2023-09-07T11:35:02;78753.88;;;28.45;51.37
63665;BME280;49820;33.966;73.390;2023-09-07T11:37:35;78733.38;;;28.18;52.60
63665;BME280;49820;33.966;73.390;2023-09-07T11:40:05;78734.66;;;28.36;51.93
63665;BME280;49820;33.966;73.390;2023-09-07T11:42:41;78756.31;;;28.40;53.01
63665;BME280;49820;33.966;73.390;2023-09-07T11:45:10;78765.22;;;28.32;51.76
63665;BME280;49820;33.966;73.390;2023-09-07T11:47:39;78735.81;;;27.70;54.49
63665;BME280;49820;33.966;73.390;2023-09-07T11:50:08;78755.84;;;28.21;52.09
63665;BME280;49820;33.966;73.390;2023-09-07T11:52:38;78679.31;;;26.77;55.09
63665;BME280;49820;33.966;73.390;2023-09-07T11:55:07;78747.03;;;27.15;56.14
63665;BME280;49820;33.966;73.390;2023-09-07T11:57:39;78740.09;;;27.24;54.05
63665;BME280;49820;33.966;73.390;2023-09-07T12:00:09;78746.44;;;26.86;56.86
63665;BME280;49820;33.966;73.390;2023-09-07T12:02:39;78744.28;;;26.33;58.51
63665;BME280;49820;33.966;73.390;2023-09-07T12:05:08;78715.75;;;25.74;60.06
63665;BME280;49820;33.966;73.390;2023-09-07T12:07:38;78742.28;;;25.67;60.63
63665;BME280;49820;33.966;73.390;2023-09-07T12:10:07;78739.16;;;25.82;61.32
63665;BME280;49820;33.966;73.390;2023-09-07T12:12:40;78720.63;;;25.35;62.82
63665;BME280;49820;33.966;73.390;2023-09-07T12:15:10;78690.09;;;24.84;62.93
63665;BME280;49820;33.966;73.390;2023-09-07T12:17:42;78696.88;;;24.85;63.68
63665;BME280;49820;33.966;73.390;2023-09-07T12:20:11;78721.75;;;24.81;64.89
63665;BME280;49820;33.966;73.390;2023-09-07T12:22:42;78649.00;;;23.77;68.22
63665;BME280;49820;33.966;73.390;2023-09-07T12:25:11;78639.25;;;23.39;69.68
63665;BME280;49820;33.966;73.390;2023-09-07T12:27:42;78723.00;;;23.92;72.44
63665;BME280;49820;33.966;73.390;2023-09-07T12:30:21;78673.28;;;23.30;73.85
63665;BME280;49820;33.966;73.390;2023-09-07T12:32:53;78730.00;;;23.48;73.55
63665;BME280;49820;33.966;73.390;2023-09-07T12:35:21;78719.09;;;23.27;74.08
63665;BME280;49820;33.966;73.390;2023-09-07T12:37:51;78718.59;;;23.14;77.96
63665;BME280;49820;33.966;73.390;2023-09-07T12:40:20;78674.34;;;22.60;81.19
63665;BME280;49820;33.966;73.390;2023-09-07T12:42:51;78710.91;;;22.63;85.09
